Unbenanntes Dokument
Flugplatz Bielefeld Platzwetter

 

Aktuelles Platzwetter am Flugplatz Bielefeld EDLI

26.09.18 ,02:21 Uhr

METAR EDLI 260221Z 10004KT 9999 ///239 06/05 Q1036

 

Windwerte

 

Wolkenuntergrenzen

Wind aktuell:120 ° mit 3 kt
Wind 10 min Extrem:
80 ° bis 120 ° mit 3 kt bis 5 kt
Seitenwindkomponente: -0.5 kt
Wolkengrenze 1: 23900 ft
Wolkengrenze 2:
Wolkengrenze 3:

Webcam

Temperatur

       

Sichtweite:

20.000 Meter

6.2 °C
Taupunkt: 5.5 °C
Luftfeuchtigkeit: 95 %

Luftdruck:

QNH: 1036 hPa (30.59 in Hg)
QFE: 1019 hPa (30.09 in Hg)

Diese Daten werden automatisch ermittelt bzw. übertragen und sind nicht geprüft. Für die Richtigkeit wird daher keine Gewähr übernommen. Sie ersetzen im übrigen nicht die Flugwetterberatung. Alle Zeitangaben beziehen sich auf UTC. Die Seite wird einmal die Minute aktualisiert! Sollten Sie ein ältere Seite haben, so drücken Sie bitte auf den Reload Button Ihres Browsers!